Country
Station

 

Weather  for  Chillan  -  Chile    Chile

  
20 °C (68 °F)
    
 
 

Current METAR for Chillan is :

SCCH 161900Z 29006KT 9999 BKN030 SCT150 20/11 Q1013

 

This is a report for Chillan - Chile.
 
The report was made a moment ago, at 19:00 UTC .
The wind was blowing at a speed of 3.1 meters per second (6.9 miles per hour) from west/northwest (290°).
 
The temperature was 20 °C (68 °F), with a dew-point at 11 °C (52 °F).
The atmospheric pressure was 1013 hPa (29.91 inHg).
The relative humidity was 56.1%.
 
There were broken clouds at a height of 914 meters (3000 feet) and scattered clouds at a height of 4572 meters (15000 feet).
 
The overall visibility was greater than 10 kilometers (6.2 miles).
 

 
 
 
 

Country :   A   B   C   D   E   F   G   H   I   J   K   L   M   N   O   P   Q   R   S   T   U   V   W   Y   Z

 

Site Info  |  Disclaimer  |  Credits  |  Privacy
Contact us  |  Add to favorites
© 2013-2018 METARs - All rights reserved